createdAt,value
2018-09-02T00:01:18.063Z,13.90
2018-09-02T00:03:45.545Z,13.90
2018-09-02T00:06:12.913Z,13.90
2018-09-02T00:08:40.276Z,13.90
2018-09-02T00:11:07.679Z,13.80
2018-09-02T00:13:35.045Z,13.80
2018-09-02T00:16:02.471Z,13.70
2018-09-02T00:18:29.875Z,13.70
2018-09-02T00:20:57.290Z,13.70
2018-09-02T00:23:24.691Z,13.70
2018-09-02T00:25:52.100Z,13.70
2018-09-02T00:28:19.507Z,13.70
2018-09-02T00:30:46.917Z,13.70
2018-09-02T00:33:14.436Z,13.70
2018-09-02T00:35:41.817Z,13.60
2018-09-02T00:38:09.184Z,13.60
2018-09-02T00:40:36.628Z,13.60
2018-09-02T00:43:04.407Z,13.60
2018-09-02T00:45:31.828Z,13.50
2018-09-02T00:47:59.216Z,13.50
2018-09-02T00:50:26.596Z,13.50
2018-09-02T00:52:53.979Z,13.50
2018-09-02T00:55:21.374Z,13.50
2018-09-02T00:57:48.779Z,13.50
2018-09-02T01:00:16.796Z,13.40
2018-09-02T01:02:44.200Z,13.40
2018-09-02T01:05:11.576Z,13.40
2018-09-02T01:07:38.955Z,13.40
2018-09-02T01:10:06.667Z,13.40
2018-09-02T01:12:34.063Z,13.30
2018-09-02T01:15:01.469Z,13.30
2018-09-02T01:17:28.891Z,13.30
2018-09-02T01:19:56.287Z,13.30
2018-09-02T01:22:23.671Z,13.20
2018-09-02T01:24:51.145Z,13.20
2018-09-02T01:27:18.646Z,13.30
2018-09-02T01:29:46.059Z,13.20
2018-09-02T01:32:14.303Z,13.20
2018-09-02T01:34:42.328Z,13.20
2018-09-02T01:37:09.704Z,13.20
2018-09-02T01:39:37.136Z,13.20
2018-09-02T01:42:04.659Z,13.10
2018-09-02T01:44:32.020Z,13.10
2018-09-02T01:46:59.360Z,13.10
2018-09-02T01:49:26.888Z,13.10
2018-09-02T01:51:54.303Z,13.10
2018-09-02T01:54:21.674Z,13.10
2018-09-02T01:56:49.039Z,13.10
2018-09-02T01:59:16.842Z,13.00
2018-09-02T02:01:44.237Z,13.00
2018-09-02T02:04:11.630Z,13.00
2018-09-02T02:06:39.056Z,13.00
2018-09-02T02:09:08.390Z,12.90
2018-09-02T02:11:35.958Z,12.90
2018-09-02T02:14:03.371Z,12.90
2018-09-02T02:16:30.722Z,12.90
2018-09-02T02:18:59.665Z,12.90
2018-09-02T02:21:26.839Z,12.90
2018-09-02T02:23:54.046Z,12.90
2018-09-02T02:26:21.239Z,12.80
2018-09-02T02:28:48.444Z,12.80
2018-09-02T02:31:15.607Z,12.80
2018-09-02T02:33:42.962Z,12.80
2018-09-02T02:36:10.303Z,12.80
2018-09-02T02:38:37.985Z,12.80
2018-09-02T02:41:05.373Z,12.80
2018-09-02T02:43:32.777Z,12.80
2018-09-02T02:46:00.188Z,12.70
2018-09-02T02:48:27.559Z,12.70
2018-09-02T02:50:54.927Z,12.70
2018-09-02T02:53:22.306Z,12.60
2018-09-02T02:55:49.676Z,12.60
2018-09-02T02:58:17.052Z,12.60
2018-09-02T03:00:44.400Z,12.60
2018-09-02T03:03:11.756Z,12.60
2018-09-02T03:05:39.164Z,12.60
2018-09-02T03:08:06.548Z,12.60
2018-09-02T03:10:34.281Z,12.60
2018-09-02T03:13:01.675Z,12.50
2018-09-02T03:15:29.088Z,12.40
2018-09-02T03:17:56.499Z,12.40
2018-09-02T03:20:23.895Z,12.50
2018-09-02T03:22:51.285Z,12.50
2018-09-02T03:25:18.670Z,12.50
2018-09-02T03:27:46.098Z,12.50
2018-09-02T03:30:13.448Z,12.50
2018-09-02T03:32:40.915Z,12.50
2018-09-02T03:35:08.311Z,12.50
2018-09-02T03:37:35.687Z,12.40
2018-09-02T03:40:03.211Z,12.50
2018-09-02T03:42:30.647Z,12.50
2018-09-02T03:44:58.040Z,12.50
2018-09-02T03:47:25.424Z,12.40
2018-09-02T03:49:52.837Z,12.40
2018-09-02T03:52:20.256Z,12.40
2018-09-02T03:54:49.127Z,12.40
2018-09-02T03:57:16.511Z,12.40
2018-09-02T03:59:43.897Z,12.40
2018-09-02T04:02:11.280Z,12.40
2018-09-02T04:04:38.657Z,12.40
2018-09-02T04:07:06.055Z,12.40
2018-09-02T04:09:33.447Z,12.40
2018-09-02T04:12:00.836Z,12.40
2018-09-02T04:14:28.263Z,12.40
2018-09-02T04:16:55.723Z,12.30
2018-09-02T04:19:23.277Z,12.30
2018-09-02T04:21:50.679Z,12.20
2018-09-02T04:24:18.066Z,12.20
2018-09-02T04:26:45.494Z,12.20
2018-09-02T04:29:12.841Z,12.20
2018-09-02T04:31:40.199Z,12.10
2018-09-02T04:34:07.584Z,12.10
2018-09-02T04:36:34.985Z,12.20
2018-09-02T04:39:03.198Z,12.10
2018-09-02T04:41:30.599Z,12.20
2018-09-02T04:43:57.968Z,12.10
2018-09-02T04:46:25.390Z,12.10
2018-09-02T04:48:52.780Z,12.00
2018-09-02T04:51:20.211Z,12.00
2018-09-02T04:53:47.701Z,12.00
2018-09-02T04:56:15.088Z,12.10
2018-09-02T04:58:42.459Z,12.10
2018-09-02T05:01:09.907Z,12.00
2018-09-02T05:03:37.535Z,12.00
2018-09-02T05:06:04.924Z,12.00
2018-09-02T05:08:32.326Z,12.00
2018-09-02T05:10:59.728Z,12.00
2018-09-02T05:13:27.118Z,12.00
2018-09-02T05:15:54.530Z,12.10
2018-09-02T05:18:21.939Z,12.10
2018-09-02T05:20:49.572Z,12.10
2018-09-02T05:23:17.034Z,12.10
2018-09-02T05:25:44.487Z,12.10
2018-09-02T05:28:11.906Z,12.20
2018-09-02T05:30:39.356Z,12.20
2018-09-02T05:33:06.759Z,12.30
2018-09-02T05:35:34.129Z,12.20
2018-09-02T05:38:01.631Z,12.30
2018-09-02T05:40:29.031Z,12.40
2018-09-02T05:42:56.455Z,12.50
2018-09-02T05:45:23.836Z,12.50
2018-09-02T05:47:51.236Z,12.50
2018-09-02T05:50:18.620Z,12.60
2018-09-02T05:52:46.052Z,12.60
2018-09-02T05:55:13.460Z,12.70
2018-09-02T05:57:40.915Z,12.80
2018-09-02T06:00:08.309Z,12.90
2018-09-02T06:02:35.804Z,12.90
2018-09-02T06:05:03.811Z,13.10
2018-09-02T06:07:31.231Z,13.10
2018-09-02T06:09:58.608Z,13.30
2018-09-02T06:12:25.969Z,13.40
2018-09-02T06:14:53.653Z,13.60
2018-09-02T06:17:21.205Z,13.70
2018-09-02T06:19:48.436Z,13.70
2018-09-02T06:22:15.824Z,14.10
2018-09-02T06:24:43.212Z,14.70
2018-09-02T06:27:10.606Z,15.40
2018-09-02T06:29:38.019Z,16.10
2018-09-02T06:32:05.465Z,16.80
2018-09-02T06:34:32.887Z,17.50
2018-09-02T06:37:00.263Z,18.00
2018-09-02T06:39:27.697Z,18.50
2018-09-02T06:41:54.996Z,18.80
2018-09-02T06:44:22.371Z,18.80
2018-09-02T06:46:49.743Z,19.00
2018-09-02T06:49:17.120Z,19.00
2018-09-02T06:51:44.487Z,19.00
2018-09-02T06:54:11.869Z,18.60
2018-09-02T06:56:39.247Z,18.50
2018-09-02T06:59:06.636Z,18.30
2018-09-02T07:01:34.183Z,18.30
2018-09-02T07:04:01.548Z,18.40
2018-09-02T07:06:28.918Z,18.40
2018-09-02T07:08:56.298Z,18.30
2018-09-02T07:11:24.731Z,18.20
2018-09-02T07:13:52.136Z,18.30
2018-09-02T07:16:19.506Z,18.50
2018-09-02T07:18:46.852Z,18.80
2018-09-02T07:21:14.199Z,18.90
2018-09-02T07:23:41.616Z,18.90
2018-09-02T07:26:09.096Z,19.10
2018-09-02T07:28:36.466Z,19.30
2018-09-02T07:31:04.846Z,19.30
2018-09-02T07:33:32.236Z,19.40
2018-09-02T07:35:59.716Z,19.20
2018-09-02T07:38:27.126Z,19.20
2018-09-02T07:40:54.527Z,19.20
2018-09-02T07:43:21.904Z,19.30
2018-09-02T07:45:49.288Z,19.50
2018-09-02T07:48:16.729Z,19.60
2018-09-02T07:50:44.103Z,19.90
2018-09-02T07:53:11.473Z,20.00
2018-09-02T07:55:39.203Z,19.80
2018-09-02T07:58:06.603Z,20.10
2018-09-02T08:00:33.958Z,20.10
2018-09-02T08:03:01.696Z,20.20
2018-09-02T08:05:29.124Z,20.00
2018-09-02T08:07:56.502Z,19.90
2018-09-02T08:10:23.932Z,19.60
2018-09-02T08:12:52.049Z,19.70
2018-09-02T08:15:19.262Z,19.70
2018-09-02T08:17:46.672Z,19.90
2018-09-02T08:20:14.089Z,19.80
2018-09-02T08:22:41.514Z,20.00
2018-09-02T08:25:08.884Z,20.10
2018-09-02T08:27:36.261Z,20.70
2018-09-02T08:30:03.710Z,21.10
2018-09-02T08:32:31.131Z,21.30
2018-09-02T08:34:58.517Z,21.50
2018-09-02T08:37:25.908Z,21.30
2018-09-02T08:39:53.320Z,21.30
2018-09-02T08:42:20.714Z,21.50
2018-09-02T08:44:48.107Z,21.60
2018-09-02T08:47:15.811Z,21.70
2018-09-02T08:49:43.207Z,21.60
2018-09-02T08:52:11.484Z,21.40
2018-09-02T08:54:38.879Z,21.50
2018-09-02T08:57:06.723Z,21.40
2018-09-02T08:59:34.121Z,21.50
2018-09-02T09:02:01.555Z,21.30
2018-09-02T09:04:28.951Z,21.30
2018-09-02T09:06:56.386Z,21.30
2018-09-02T09:09:26.642Z,21.60
2018-09-02T09:11:54.070Z,21.40
2018-09-02T09:14:21.504Z,21.40
2018-09-02T09:16:48.983Z,21.40
2018-09-02T09:19:16.287Z,21.70
2018-09-02T09:21:43.949Z,22.10
2018-09-02T09:24:11.385Z,22.30
2018-09-02T09:26:38.715Z,22.40
2018-09-02T09:29:06.131Z,22.60
2018-09-02T09:31:33.544Z,22.80
2018-09-02T09:34:00.952Z,23.20
2018-09-02T09:36:28.616Z,23.20
2018-09-02T09:38:56.047Z,23.20
2018-09-02T09:41:23.519Z,23.40
2018-09-02T09:43:51.460Z,23.50
2018-09-02T09:46:18.880Z,23.30
2018-09-02T09:48:46.301Z,23.50
2018-09-02T09:51:13.832Z,23.70
2018-09-02T09:53:41.450Z,23.80
2018-09-02T09:56:08.928Z,24.00
2018-09-02T09:58:40.463Z,24.10
2018-09-02T10:01:07.856Z,24.10
2018-09-02T10:03:35.272Z,24.20
2018-09-02T10:06:02.803Z,24.50
2018-09-02T10:08:30.215Z,24.50
2018-09-02T10:10:57.628Z,24.80
2018-09-02T10:13:25.145Z,25.00
2018-09-02T10:15:54.636Z,24.80
2018-09-02T10:18:22.458Z,25.00
2018-09-02T10:20:50.107Z,25.20
2018-09-02T10:23:17.758Z,25.50
2018-09-02T10:25:45.435Z,25.60
2018-09-02T10:28:13.471Z,25.70
2018-09-02T10:30:45.950Z,25.50
2018-09-02T10:33:13.696Z,25.20
2018-09-02T10:35:41.291Z,25.00
2018-09-02T10:38:08.699Z,24.80
2018-09-02T10:40:36.519Z,24.90
2018-09-02T10:43:04.108Z,25.00
2018-09-02T10:45:31.731Z,25.10
2018-09-02T10:47:59.336Z,25.20
2018-09-02T10:50:27.124Z,25.50
2018-09-02T10:52:55.287Z,25.70
2018-09-02T10:55:22.884Z,25.90
2018-09-02T10:57:50.653Z,26.00
2018-09-02T11:00:18.324Z,25.80
2018-09-02T11:02:49.542Z,25.90
2018-09-02T11:05:17.317Z,25.90
2018-09-02T11:07:45.819Z,25.80
2018-09-02T11:10:18.674Z,25.60
2018-09-02T11:12:47.167Z,25.80
2018-09-02T11:15:16.621Z,25.90
2018-09-02T11:17:44.327Z,26.00
2018-09-02T11:20:12.941Z,26.00
2018-09-02T11:22:40.843Z,26.20
2018-09-02T11:25:08.531Z,26.30
2018-09-02T11:27:36.003Z,26.20
2018-09-02T11:30:06.450Z,26.40
2018-09-02T11:32:34.574Z,26.50
2018-09-02T11:35:02.176Z,26.60
2018-09-02T11:38:54.425Z,26.80
2018-09-02T11:41:21.784Z,26.70
2018-09-02T11:43:49.267Z,26.70
2018-09-02T11:46:16.664Z,26.50
2018-09-02T11:48:44.207Z,26.40
2018-09-02T11:51:12.738Z,26.50
2018-09-02T11:53:40.162Z,26.70
2018-09-02T11:56:07.592Z,26.90
2018-09-02T11:58:34.921Z,26.90
2018-09-02T12:01:02.327Z,26.80
2018-09-02T12:03:29.806Z,27.00
2018-09-02T12:05:57.243Z,26.90
2018-09-02T12:08:24.621Z,26.80
2018-09-02T12:10:52.272Z,26.70
2018-09-02T12:13:20.507Z,26.70
2018-09-02T12:15:47.740Z,26.70
2018-09-02T12:18:15.005Z,26.60
2018-09-02T12:20:42.247Z,26.50
2018-09-02T12:23:09.455Z,26.60
2018-09-02T12:25:36.694Z,26.90
2018-09-02T12:28:03.913Z,26.90
2018-09-02T12:30:34.655Z,26.30
2018-09-02T12:33:01.831Z,25.90
2018-09-02T12:35:29.013Z,26.10
2018-09-02T12:37:56.192Z,26.30
2018-09-02T12:40:23.376Z,26.20
2018-09-02T12:42:50.780Z,26.20
2018-09-02T12:45:21.559Z,26.20
2018-09-02T12:47:48.953Z,26.20
2018-09-02T12:50:16.053Z,26.40
2018-09-02T12:52:43.284Z,26.40
2018-09-02T12:55:10.514Z,26.60
2018-09-02T12:57:41.775Z,26.70
2018-09-02T13:00:09.028Z,26.50
2018-09-02T13:02:36.319Z,26.60
2018-09-02T13:05:03.536Z,26.70
2018-09-02T13:07:30.700Z,26.50
2018-09-02T13:09:57.936Z,26.30
2018-09-02T13:12:27.460Z,26.10
2018-09-02T13:14:54.702Z,26.10
2018-09-02T13:17:21.923Z,26.10
2018-09-02T13:19:49.089Z,26.30
2018-09-02T13:22:16.292Z,26.10
2018-09-02T13:24:43.500Z,26.20
2018-09-02T13:27:12.957Z,26.30
2018-09-02T13:29:40.177Z,26.40
2018-09-02T13:32:07.396Z,26.50
2018-09-02T13:34:34.635Z,26.40
2018-09-02T13:37:01.897Z,26.50
2018-09-02T13:39:29.108Z,26.60
2018-09-02T13:41:57.973Z,26.70
2018-09-02T13:44:25.201Z,26.70
2018-09-02T13:46:52.471Z,26.70
2018-09-02T13:49:19.663Z,26.60
2018-09-02T13:51:46.895Z,26.30
2018-09-02T13:54:14.060Z,26.40
2018-09-02T13:56:45.650Z,26.30
2018-09-02T13:59:12.825Z,26.40
2018-09-02T14:01:40.007Z,26.40
2018-09-02T14:04:07.194Z,26.30
2018-09-02T14:06:34.355Z,26.50
2018-09-02T14:09:01.575Z,26.40
2018-09-02T14:11:32.804Z,26.50
2018-09-02T14:14:00.118Z,26.50
2018-09-02T14:16:27.255Z,26.40
2018-09-02T14:18:54.445Z,26.30
2018-09-02T14:21:21.760Z,26.50
2018-09-02T14:23:48.930Z,26.40
2018-09-02T14:26:22.421Z,26.50
2018-09-02T14:28:50.563Z,26.50
2018-09-02T14:31:17.828Z,26.60
2018-09-02T14:33:45.005Z,26.70
2018-09-02T14:36:12.189Z,26.40
2018-09-02T14:38:39.373Z,26.50
2018-09-02T14:41:06.570Z,26.40
2018-09-02T14:43:35.915Z,26.50
2018-09-02T14:46:03.199Z,26.30
2018-09-02T14:48:30.407Z,26.50
2018-09-02T14:50:57.771Z,26.40
2018-09-02T14:53:24.916Z,26.30
2018-09-02T14:55:52.104Z,26.30
2018-09-02T14:58:21.100Z,26.30
2018-09-02T15:00:48.348Z,26.10
2018-09-02T15:03:15.527Z,26.00
2018-09-02T15:05:42.700Z,26.00
2018-09-02T15:08:09.898Z,25.80
2018-09-02T15:10:37.092Z,25.80
2018-09-02T15:13:06.944Z,25.70
2018-09-02T15:15:34.113Z,25.50
2018-09-02T15:18:01.384Z,25.30
2018-09-02T15:20:28.603Z,25.20
2018-09-02T15:22:55.843Z,25.20
2018-09-02T15:25:23.029Z,25.30
2018-09-02T15:27:54.570Z,25.30
2018-09-02T15:30:22.401Z,25.20
2018-09-02T15:32:49.568Z,25.20
2018-09-02T15:35:16.730Z,25.30
2018-09-02T15:37:43.891Z,25.20
2018-09-02T15:40:11.091Z,25.30
2018-09-02T15:42:39.786Z,25.30
2018-09-02T15:45:07.035Z,25.40
2018-09-02T15:47:34.204Z,25.40
2018-09-02T15:50:01.475Z,25.20
2018-09-02T15:52:29.006Z,25.20
2018-09-02T15:54:56.143Z,25.30
2018-09-02T15:57:25.044Z,25.30
2018-09-02T15:59:52.231Z,25.30
2018-09-02T16:02:19.423Z,25.10
2018-09-02T16:04:46.670Z,24.80
2018-09-02T16:07:13.864Z,24.70
2018-09-02T16:09:41.036Z,24.40
2018-09-02T16:12:10.740Z,24.40
2018-09-02T16:14:38.689Z,24.30
2018-09-02T16:17:05.916Z,24.10
2018-09-02T16:19:33.092Z,24.10
2018-09-02T16:22:00.261Z,23.90
2018-09-02T16:24:27.664Z,24.00
2018-09-02T16:26:54.962Z,23.80
2018-09-02T16:29:25.256Z,23.80
2018-09-02T16:31:53.215Z,23.60
2018-09-02T16:34:20.396Z,23.60
2018-09-02T16:36:47.568Z,23.60
2018-09-02T16:39:14.740Z,23.60
2018-09-02T16:41:41.980Z,23.50
2018-09-02T16:44:09.158Z,23.30
2018-09-02T16:46:36.449Z,23.30
2018-09-02T16:49:03.937Z,23.20
2018-09-02T16:51:31.558Z,23.10
2018-09-02T16:53:58.885Z,23.30
2018-09-02T16:56:26.200Z,23.20
2018-09-02T16:58:55.259Z,23.30
2018-09-02T17:01:24.872Z,23.30
2018-09-02T17:03:55.760Z,23.10
2018-09-02T17:06:23.335Z,23.10
2018-09-02T17:08:50.733Z,23.00
2018-09-02T17:11:18.208Z,23.00
2018-09-02T17:13:45.752Z,22.90
2018-09-02T17:16:13.147Z,22.80
2018-09-02T17:18:40.577Z,22.60
2018-09-02T17:21:07.983Z,22.60
2018-09-02T17:23:35.264Z,22.70
2018-09-02T17:26:02.508Z,22.60
2018-09-02T17:28:29.616Z,22.60
2018-09-02T17:30:56.778Z,22.60
2018-09-02T17:33:24.048Z,22.60
2018-09-02T17:35:51.225Z,22.60
2018-09-02T17:38:18.407Z,22.60
2018-09-02T17:40:49.520Z,22.50
2018-09-02T17:43:16.981Z,22.50
2018-09-02T17:45:44.476Z,22.50
2018-09-02T17:48:12.040Z,22.40
2018-09-02T17:50:39.442Z,22.30
2018-09-02T17:53:06.876Z,22.20
2018-09-02T17:55:34.464Z,22.20
2018-09-02T17:58:01.900Z,22.20
2018-09-02T18:00:34.446Z,22.20
2018-09-02T18:03:01.811Z,22.20
2018-09-02T18:05:29.200Z,22.10
2018-09-02T18:07:56.631Z,22.00
2018-09-02T18:10:24.126Z,21.90
2018-09-02T18:12:51.698Z,22.00
2018-09-02T18:15:19.116Z,22.00
2018-09-02T18:17:46.547Z,21.90
2018-09-02T18:20:14.051Z,21.80
2018-09-02T18:22:41.880Z,21.90
2018-09-02T18:25:09.595Z,21.90
2018-09-02T18:27:38.951Z,21.90
2018-09-02T18:30:06.655Z,21.80
2018-09-02T18:32:34.153Z,21.80
2018-09-02T18:35:01.584Z,21.70
2018-09-02T18:37:29.356Z,21.80
2018-09-02T18:39:57.133Z,21.50
2018-09-02T18:42:25.076Z,21.40
2018-09-02T18:44:52.563Z,21.50
2018-09-02T18:47:20.257Z,21.60
2018-09-02T18:49:47.849Z,21.60
2018-09-02T18:52:15.779Z,21.50
2018-09-02T18:54:43.566Z,21.50
2018-09-02T18:57:11.193Z,21.60
2018-09-02T18:59:39.835Z,21.60
2018-09-02T19:02:08.535Z,21.60
2018-09-02T19:04:41.604Z,21.60
2018-09-02T19:07:08.995Z,21.60
2018-09-02T19:09:37.002Z,21.70
2018-09-02T19:12:04.905Z,21.60
2018-09-02T19:14:32.417Z,21.50
2018-09-02T19:16:59.807Z,21.50
2018-09-02T19:19:27.481Z,21.50
2018-09-02T19:21:55.370Z,21.30
2018-09-02T19:24:22.746Z,21.40
2018-09-02T19:26:50.257Z,21.50
2018-09-02T19:29:17.904Z,21.20
2018-09-02T19:31:45.419Z,21.40
2018-09-02T19:34:12.902Z,21.40
2018-09-02T19:36:40.387Z,21.40
2018-09-02T19:39:08.667Z,21.30
2018-09-02T19:41:38.452Z,21.40
2018-09-02T19:44:05.927Z,21.40
2018-09-02T19:46:33.319Z,21.40
2018-09-02T19:49:01.800Z,21.50
2018-09-02T19:51:29.267Z,21.40
2018-09-02T19:53:56.630Z,21.30
2018-09-02T19:56:24.092Z,21.40
2018-09-02T19:58:51.517Z,21.30
2018-09-02T20:01:18.966Z,21.20
2018-09-02T20:03:46.516Z,21.20
2018-09-02T20:06:13.977Z,21.20
2018-09-02T20:08:41.343Z,21.30
2018-09-02T20:11:08.833Z,21.30
2018-09-02T20:13:36.287Z,21.20
2018-09-02T20:16:03.851Z,21.20
2018-09-02T20:18:31.501Z,21.10
2018-09-02T20:20:59.234Z,21.10
2018-09-02T20:23:26.829Z,21.10
2018-09-02T20:25:54.228Z,21.00
2018-09-02T20:28:21.624Z,21.00
2018-09-02T20:30:49.019Z,21.00
2018-09-02T20:33:16.489Z,21.00
2018-09-02T20:35:43.928Z,21.00
2018-09-02T20:38:11.528Z,21.10
2018-09-02T20:40:39.007Z,21.10
2018-09-02T20:43:06.599Z,21.10
2018-09-02T20:45:33.983Z,21.00
2018-09-02T20:48:01.344Z,21.00
2018-09-02T20:50:28.868Z,21.00
2018-09-02T20:52:56.394Z,21.00
2018-09-02T20:55:24.694Z,21.00
2018-09-02T20:57:52.143Z,21.00
2018-09-02T21:00:19.668Z,20.90
2018-09-02T21:02:47.141Z,21.00
2018-09-02T21:05:15.131Z,20.90
2018-09-02T21:07:42.576Z,20.90
2018-09-02T21:10:09.979Z,21.00
2018-09-02T21:12:37.381Z,21.00
2018-09-02T21:15:04.931Z,21.00
2018-09-02T21:17:32.411Z,21.00
2018-09-02T21:19:59.830Z,20.90
2018-09-02T21:22:27.415Z,20.90
2018-09-02T21:24:55.212Z,21.00
2018-09-02T21:27:23.190Z,20.90
2018-09-02T21:29:50.688Z,20.80
2018-09-02T21:32:18.240Z,20.80
2018-09-02T21:34:45.740Z,20.80
2018-09-02T21:37:13.394Z,20.80
2018-09-02T21:39:40.787Z,20.80
2018-09-02T21:42:08.168Z,20.90
2018-09-02T21:44:36.912Z,20.90
2018-09-02T21:47:04.314Z,20.90
2018-09-02T21:49:31.692Z,20.80
2018-09-02T21:51:59.187Z,20.90
2018-09-02T21:54:30.627Z,20.80
2018-09-02T21:56:58.031Z,20.80
2018-09-02T21:59:25.672Z,20.70
2018-09-02T22:01:53.088Z,20.70
2018-09-02T22:04:20.773Z,20.80
2018-09-02T22:06:48.160Z,20.70
2018-09-02T22:09:16.529Z,20.60
2018-09-02T22:11:44.885Z,20.30
2018-09-02T22:14:12.839Z,20.40
2018-09-02T22:16:43.793Z,20.30
2018-09-02T22:19:11.456Z,20.40
2018-09-02T22:21:39.032Z,20.50
2018-09-02T22:24:06.434Z,20.60
2018-09-02T22:26:33.820Z,20.60
2018-09-02T22:29:01.906Z,20.60
2018-09-02T22:31:29.348Z,20.50
2018-09-02T22:33:56.765Z,20.50
2018-09-02T22:36:24.161Z,20.50
2018-09-02T22:38:51.624Z,20.50
2018-09-02T22:41:19.042Z,20.50
2018-09-02T22:43:46.451Z,20.60
2018-09-02T22:46:14.182Z,20.50
2018-09-02T22:48:41.571Z,20.50
2018-09-02T22:51:08.985Z,20.50
2018-09-02T22:53:36.392Z,20.50
2018-09-02T22:56:03.792Z,20.50
2018-09-02T22:58:31.176Z,20.40
2018-09-02T23:00:58.707Z,20.50
2018-09-02T23:03:26.274Z,20.50
2018-09-02T23:05:53.667Z,20.50
2018-09-02T23:08:21.039Z,20.50
2018-09-02T23:10:48.416Z,20.60
2018-09-02T23:13:15.791Z,20.60
2018-09-02T23:15:43.164Z,20.60
2018-09-02T23:18:10.523Z,20.60
2018-09-02T23:20:37.919Z,20.50
2018-09-02T23:23:05.351Z,20.50
2018-09-02T23:25:32.783Z,20.50
2018-09-02T23:28:00.146Z,20.50
2018-09-02T23:30:27.511Z,20.50
2018-09-02T23:32:54.891Z,20.50
2018-09-02T23:35:22.282Z,20.50
2018-09-02T23:37:49.647Z,20.50
2018-09-02T23:40:17.072Z,20.50
2018-09-02T23:42:44.764Z,20.50
2018-09-02T23:45:12.148Z,20.50
2018-09-02T23:47:39.533Z,20.50
2018-09-02T23:50:07.056Z,20.50
2018-09-02T23:52:34.539Z,20.50
2018-09-02T23:55:01.948Z,20.40
2018-09-02T23:57:29.459Z,20.50
2018-09-02T23:59:56.875Z,20.50
